createdAt,value
2017-11-27T05:00:52.125Z,0
2017-11-27T05:01:17.652Z,0
2017-11-27T05:01:43.110Z,0
2017-11-27T05:02:08.604Z,0
2017-11-27T05:02:34.072Z,0
2017-11-27T05:02:59.597Z,0
2017-11-27T05:03:25.093Z,0
2017-11-27T05:03:50.575Z,0
2017-11-27T05:04:16.046Z,0
2017-11-27T05:04:41.528Z,0
2017-11-27T05:05:07.003Z,0
2017-11-27T05:05:32.494Z,0
2017-11-27T05:05:58.007Z,0
2017-11-27T05:06:23.487Z,0
2017-11-27T05:06:48.977Z,0
2017-11-27T05:07:14.468Z,0
2017-11-27T05:07:39.962Z,0
2017-11-27T05:08:05.413Z,0
2017-11-27T05:08:30.895Z,0
2017-11-27T05:08:56.436Z,0
2017-11-27T05:09:21.940Z,0
2017-11-27T05:09:47.415Z,0
2017-11-27T05:10:12.959Z,0
2017-11-27T05:10:38.485Z,0
2017-11-27T05:11:03.973Z,0
2017-11-27T05:11:29.460Z,0
2017-11-27T05:11:54.951Z,0
2017-11-27T05:12:20.428Z,0
2017-11-27T05:12:45.920Z,0
2017-11-27T05:13:11.400Z,0
2017-11-27T05:13:36.900Z,0
2017-11-27T05:14:02.382Z,0
2017-11-27T05:14:27.850Z,0
2017-11-27T05:14:53.318Z,0
2017-11-27T05:15:18.818Z,0
2017-11-27T05:15:44.292Z,0
2017-11-27T05:16:09.807Z,0
2017-11-27T05:16:35.316Z,0
2017-11-27T05:17:00.846Z,0
2017-11-27T05:17:26.308Z,0
2017-11-27T05:18:29.973Z,0
2017-11-27T05:18:55.443Z,0
2017-11-27T05:19:20.957Z,0
2017-11-27T05:19:46.424Z,0
2017-11-27T05:20:11.922Z,0
2017-11-27T05:20:37.405Z,0
2017-11-27T05:21:02.908Z,0
2017-11-27T05:21:28.408Z,0
2017-11-27T05:21:53.897Z,0
2017-11-27T05:22:19.389Z,0
2017-11-27T05:22:44.900Z,0
2017-11-27T05:23:10.391Z,0
2017-11-27T05:23:35.827Z,0
2017-11-27T05:24:01.323Z,0
2017-11-27T05:24:26.777Z,0
2017-11-27T05:24:52.261Z,0
2017-11-27T05:25:17.769Z,0
2017-11-27T05:25:43.273Z,0
2017-11-27T05:26:08.793Z,0
2017-11-27T05:26:34.271Z,0
2017-11-27T05:26:59.728Z,0
2017-11-27T05:27:25.223Z,0
2017-11-27T05:27:50.728Z,0
2017-11-27T05:28:16.220Z,0
2017-11-27T05:28:41.695Z,0
2017-11-27T05:29:07.155Z,0
2017-11-27T05:29:32.649Z,0
2017-11-27T05:29:58.155Z,0
2017-11-27T05:30:23.639Z,0
2017-11-27T05:30:49.133Z,0
2017-11-27T05:31:14.677Z,0
2017-11-27T05:31:40.215Z,0
2017-11-27T05:32:05.684Z,0
2017-11-27T05:32:31.186Z,0
2017-11-27T05:32:56.638Z,0
2017-11-27T05:33:22.119Z,0
2017-11-27T05:33:47.640Z,0
2017-11-27T05:34:13.130Z,0
2017-11-27T05:34:38.630Z,0
2017-11-27T05:35:04.109Z,0
2017-11-27T05:35:29.624Z,0
2017-11-27T05:35:55.143Z,0
2017-11-27T05:36:20.627Z,0
2017-11-27T05:36:46.100Z,0
2017-11-27T05:37:11.596Z,0
2017-11-27T05:37:37.091Z,0
2017-11-27T05:38:02.592Z,0
2017-11-27T05:38:28.058Z,0
2017-11-27T05:38:53.586Z,0
2017-11-27T05:39:19.085Z,0
2017-11-27T05:39:44.589Z,0
2017-11-27T05:40:10.080Z,0
2017-11-27T05:40:35.583Z,0
2017-11-27T05:41:01.056Z,0
2017-11-27T05:41:26.535Z,0
2017-11-27T05:41:52.082Z,0
2017-11-27T05:42:17.606Z,0
2017-11-27T05:42:43.085Z,0
2017-11-27T05:43:08.611Z,0
2017-11-27T05:43:34.081Z,0
2017-11-27T05:43:59.585Z,0
2017-11-27T05:44:25.099Z,0
2017-11-27T05:44:50.585Z,0
2017-11-27T05:45:16.033Z,0
2017-11-27T05:45:41.533Z,0
2017-11-27T05:46:07.000Z,0
2017-11-27T05:46:32.505Z,0
2017-11-27T05:46:58.000Z,0
2017-11-27T05:47:23.497Z,0
2017-11-27T05:47:48.985Z,0
2017-11-27T05:48:14.465Z,0
2017-11-27T05:48:39.950Z,0
2017-11-27T05:49:05.445Z,0
2017-11-27T05:49:30.923Z,0
2017-11-27T05:49:56.426Z,0
2017-11-27T05:50:21.882Z,0
2017-11-27T05:50:47.362Z,0
2017-11-27T05:51:12.832Z,0
2017-11-27T05:51:38.321Z,0
2017-11-27T05:52:03.829Z,0
2017-11-27T05:52:29.305Z,0
2017-11-27T05:52:54.798Z,0
2017-11-27T05:53:20.254Z,0
2017-11-27T05:53:45.746Z,0
2017-11-27T05:54:11.233Z,0
2017-11-27T05:54:36.707Z,0
2017-11-27T05:55:02.199Z,0
2017-11-27T05:55:27.701Z,0
2017-11-27T05:55:53.201Z,0
2017-11-27T05:56:18.694Z,0
2017-11-27T05:56:44.179Z,0
2017-11-27T05:57:09.648Z,0
2017-11-27T05:57:35.110Z,0
2017-11-27T05:58:00.628Z,0
2017-11-27T05:58:26.117Z,0
2017-11-27T05:58:51.595Z,0
2017-11-27T05:59:17.113Z,0
2017-11-27T05:59:42.593Z,0
2017-11-27T06:00:08.099Z,0
2017-11-27T06:00:33.591Z,0
2017-11-27T06:00:59.070Z,0
2017-11-27T06:01:24.591Z,0
2017-11-27T06:01:50.062Z,0
2017-11-27T06:02:15.576Z,0
2017-11-27T06:02:41.086Z,0
2017-11-27T06:03:06.565Z,0
2017-11-27T06:03:32.054Z,0
2017-11-27T06:03:57.556Z,0
2017-11-27T06:04:23.003Z,0
2017-11-27T06:04:48.500Z,0
2017-11-27T06:05:13.986Z,0
2017-11-27T06:05:39.439Z,0
2017-11-27T06:06:04.943Z,0
2017-11-27T06:06:30.481Z,0
2017-11-27T06:06:55.948Z,0
2017-11-27T06:07:21.427Z,0
2017-11-27T06:07:46.936Z,0
2017-11-27T06:08:12.404Z,0
2017-11-27T06:08:37.949Z,0
2017-11-27T06:09:03.402Z,0
2017-11-27T06:09:28.872Z,0
2017-11-27T06:09:54.358Z,0
2017-11-27T06:10:19.850Z,0
2017-11-27T06:10:45.335Z,0
2017-11-27T06:11:10.814Z,0
2017-11-27T06:11:36.317Z,0
2017-11-27T06:12:01.786Z,0
2017-11-27T06:12:27.232Z,0
2017-11-27T06:12:52.780Z,0
2017-11-27T06:13:18.229Z,0
2017-11-27T06:13:43.734Z,0
2017-11-27T06:14:09.205Z,0
2017-11-27T06:14:34.685Z,0
2017-11-27T06:15:00.182Z,0
2017-11-27T06:15:25.687Z,0
2017-11-27T06:15:51.157Z,0
2017-11-27T06:16:16.638Z,0
2017-11-27T06:16:42.107Z,0
2017-11-27T06:17:07.582Z,0
2017-11-27T06:17:33.065Z,0
2017-11-27T06:17:58.551Z,0
2017-11-27T06:18:24.058Z,0
2017-11-27T06:18:49.541Z,0
2017-11-27T06:19:15.032Z,0
2017-11-27T06:19:40.530Z,0
2017-11-27T06:20:05.999Z,0
2017-11-27T06:20:31.499Z,0
2017-11-27T06:20:56.998Z,0
2017-11-27T06:21:22.440Z,0
2017-11-27T06:21:47.958Z,0
2017-11-27T06:22:13.468Z,0
2017-11-27T06:22:38.937Z,0
2017-11-27T06:23:04.440Z,0
2017-11-27T06:23:29.926Z,0
2017-11-27T06:23:55.427Z,0
2017-11-27T06:24:20.899Z,0
2017-11-27T06:24:46.352Z,0
2017-11-27T06:25:11.856Z,0
2017-11-27T06:25:37.339Z,0
2017-11-27T06:26:02.851Z,0
2017-11-27T06:26:28.399Z,0
2017-11-27T06:26:53.862Z,0
2017-11-27T06:27:19.341Z,0
2017-11-27T06:27:44.843Z,0
2017-11-27T06:28:10.360Z,0
2017-11-27T06:28:35.842Z,0
2017-11-27T06:29:01.332Z,0
2017-11-27T06:29:26.797Z,0
2017-11-27T06:29:52.283Z,0
2017-11-27T06:30:17.792Z,0
2017-11-27T06:30:43.301Z,0
2017-11-27T06:31:08.785Z,0
2017-11-27T06:31:34.301Z,0
2017-11-27T06:31:59.787Z,0
2017-11-27T06:32:25.281Z,0
2017-11-27T06:32:50.755Z,0
2017-11-27T06:33:16.223Z,0
2017-11-27T06:33:41.702Z,0
2017-11-27T06:34:07.216Z,0
2017-11-27T06:34:32.718Z,0
2017-11-27T06:34:58.196Z,0
2017-11-27T06:35:23.672Z,0
2017-11-27T06:35:49.164Z,4
2017-11-27T06:36:57.911Z,4
2017-11-27T06:37:23.410Z,4
2017-11-27T06:37:48.895Z,4
2017-11-27T06:38:14.369Z,4
2017-11-27T06:38:39.874Z,0
2017-11-27T06:39:05.375Z,0
2017-11-27T06:39:30.860Z,4
2017-11-27T06:39:56.346Z,4
2017-11-27T06:40:21.901Z,4
2017-11-27T06:40:47.386Z,4
2017-11-27T06:41:12.859Z,4
2017-11-27T06:41:38.335Z,4
2017-11-27T06:42:03.811Z,4
2017-11-27T06:42:29.308Z,4
2017-11-27T06:42:54.824Z,4
2017-11-27T06:43:20.311Z,4
2017-11-27T06:43:45.824Z,8
2017-11-27T06:44:11.319Z,8
2017-11-27T06:44:36.822Z,4
2017-11-27T06:45:02.299Z,8
2017-11-27T06:45:27.806Z,8
2017-11-27T06:45:53.260Z,8
2017-11-27T06:46:18.760Z,8
2017-11-27T06:46:44.322Z,8
2017-11-27T06:47:09.832Z,8
2017-11-27T06:47:35.315Z,8
2017-11-27T06:48:00.797Z,12
2017-11-27T06:48:26.294Z,8
2017-11-27T06:48:51.777Z,12
2017-11-27T06:49:17.295Z,12
2017-11-27T06:49:42.805Z,12
2017-11-27T06:50:08.306Z,12
2017-11-27T06:50:33.770Z,12
2017-11-27T06:50:59.237Z,12
2017-11-27T06:51:24.706Z,16
2017-11-27T06:51:50.220Z,16
2017-11-27T06:52:15.682Z,16
2017-11-27T06:52:41.220Z,16
2017-11-27T06:53:06.727Z,16
2017-11-27T06:53:32.179Z,20
2017-11-27T06:53:57.659Z,20
2017-11-27T06:54:23.136Z,24
2017-11-27T06:54:48.625Z,24
2017-11-27T06:55:14.079Z,24
2017-11-27T06:55:39.573Z,24
2017-11-27T06:56:05.067Z,28
2017-11-27T06:56:30.558Z,32
2017-11-27T06:56:56.019Z,32
2017-11-27T06:57:21.561Z,36
2017-11-27T06:57:47.053Z,40
2017-11-27T06:58:12.537Z,44
2017-11-27T06:58:38.048Z,44
2017-11-27T06:59:03.524Z,44
2017-11-27T06:59:29.036Z,52
2017-11-27T06:59:54.495Z,52
2017-11-27T07:00:19.975Z,56
2017-11-27T07:00:45.437Z,56
2017-11-27T07:01:10.966Z,60
2017-11-27T07:01:36.438Z,60
2017-11-27T07:02:01.978Z,60
2017-11-27T07:02:27.448Z,60
2017-11-27T07:02:52.952Z,60
2017-11-27T07:03:18.420Z,60
2017-11-27T07:03:43.954Z,56
2017-11-27T07:04:09.414Z,60
2017-11-27T07:04:34.887Z,56
2017-11-27T07:05:00.384Z,64
2017-11-27T07:05:25.856Z,64
2017-11-27T07:05:51.322Z,68
2017-11-27T07:06:16.811Z,68
2017-11-27T07:06:42.289Z,68
2017-11-27T07:07:07.783Z,68
2017-11-27T07:07:33.308Z,72
2017-11-27T07:07:58.817Z,76
2017-11-27T07:08:24.311Z,80
2017-11-27T07:08:49.784Z,80
2017-11-27T07:09:15.283Z,88
2017-11-27T07:09:40.794Z,88
2017-11-27T07:10:44.396Z,96
2017-11-27T07:11:09.875Z,104
2017-11-27T07:11:35.365Z,104
2017-11-27T07:12:00.872Z,104
2017-11-27T07:12:26.344Z,112
2017-11-27T07:12:51.836Z,112
2017-11-27T07:13:17.364Z,120
2017-11-27T07:13:42.807Z,124
2017-11-27T07:14:08.287Z,128
2017-11-27T07:14:33.755Z,136
2017-11-27T07:14:59.265Z,140
2017-11-27T07:15:24.740Z,148
2017-11-27T07:15:50.196Z,148
2017-11-27T07:16:15.672Z,152
2017-11-27T07:16:41.135Z,156
2017-11-27T07:17:06.608Z,164
2017-11-27T07:17:32.068Z,172
2017-11-27T07:17:57.553Z,180
2017-11-27T07:18:23.028Z,192
2017-11-27T07:18:48.489Z,200
2017-11-27T07:19:13.973Z,204
2017-11-27T07:19:39.447Z,212
2017-11-27T07:20:04.907Z,216
2017-11-27T07:20:30.435Z,220
2017-11-27T07:20:55.939Z,236
2017-11-27T07:21:21.446Z,248
2017-11-27T07:21:46.910Z,256
2017-11-27T07:22:12.400Z,260
2017-11-27T07:22:37.893Z,272
2017-11-27T07:23:03.386Z,276
2017-11-27T07:23:28.869Z,288
2017-11-27T07:23:54.401Z,288
2017-11-27T07:24:19.911Z,300
2017-11-27T07:24:45.368Z,304
2017-11-27T07:25:10.844Z,312
2017-11-27T07:25:36.331Z,320
2017-11-27T07:26:01.811Z,332
2017-11-27T07:26:27.295Z,344
2017-11-27T07:26:52.763Z,356
2017-11-27T07:27:18.262Z,372
2017-11-27T07:27:43.784Z,384
2017-11-27T07:28:09.302Z,396
2017-11-27T07:28:34.759Z,408
2017-11-27T07:29:00.225Z,420
2017-11-27T07:29:25.711Z,432
2017-11-27T07:29:51.101Z,448
2017-11-27T07:30:16.606Z,460
2017-11-27T07:30:42.054Z,476
2017-11-27T07:31:07.576Z,488
2017-11-27T07:31:33.061Z,504
2017-11-27T07:31:58.520Z,516
2017-11-27T07:32:23.990Z,528
2017-11-27T07:32:49.478Z,532
2017-11-27T07:33:14.929Z,540
2017-11-27T07:33:40.431Z,552
2017-11-27T07:34:05.852Z,556
2017-11-27T07:34:31.347Z,552
2017-11-27T07:34:56.801Z,548
2017-11-27T07:35:22.276Z,552
2017-11-27T07:35:47.739Z,564
2017-11-27T07:36:13.214Z,552
2017-11-27T07:36:38.616Z,552
2017-11-27T07:37:04.129Z,568
2017-11-27T07:37:29.569Z,580
2017-11-27T07:37:55.019Z,596
2017-11-27T07:38:20.483Z,588
2017-11-27T07:38:45.967Z,572
2017-11-27T07:39:11.395Z,552
2017-11-27T07:39:36.898Z,512
2017-11-27T07:40:02.359Z,508
2017-11-27T07:40:27.856Z,516
2017-11-27T07:40:53.365Z,504
2017-11-27T07:41:18.817Z,464
2017-11-27T07:41:44.269Z,464
2017-11-27T07:42:09.730Z,492
2017-11-27T07:42:35.258Z,488
2017-11-27T07:43:00.719Z,460
2017-11-27T07:43:26.137Z,448
2017-11-27T07:43:51.631Z,472
2017-11-27T07:44:17.100Z,460
2017-11-27T07:44:42.573Z,452
2017-11-27T07:45:08.142Z,456
2017-11-27T07:45:33.511Z,460
2017-11-27T07:45:58.992Z,428
2017-11-27T07:46:24.527Z,428
2017-11-27T07:46:49.913Z,440
2017-11-27T07:47:15.412Z,436
2017-11-27T07:47:40.880Z,440
2017-11-27T07:48:06.403Z,448
2017-11-27T07:48:31.835Z,460
2017-11-27T07:48:57.304Z,468
2017-11-27T07:49:22.741Z,464
2017-11-27T07:49:48.181Z,456
2017-11-27T07:50:13.682Z,452
2017-11-27T07:50:39.126Z,436
2017-11-27T07:51:04.596Z,428
2017-11-27T07:51:30.061Z,420
2017-11-27T07:51:55.537Z,456
2017-11-27T07:52:21.011Z,464
2017-11-27T07:52:46.489Z,452
2017-11-27T07:53:11.940Z,444
2017-11-27T07:53:37.425Z,432
2017-11-27T07:54:02.861Z,448
2017-11-27T07:54:28.333Z,428
2017-11-27T07:54:53.837Z,432
2017-11-27T07:55:19.300Z,468
2017-11-27T07:55:44.767Z,512
2017-11-27T07:56:10.205Z,536
2017-11-27T07:56:35.677Z,516
2017-11-27T07:57:01.167Z,516
2017-11-27T07:57:26.677Z,516
2017-11-27T07:57:52.177Z,516
2017-11-27T07:58:17.659Z,568
2017-11-27T07:58:43.172Z,548
2017-11-27T08:00:07.198Z,556
2017-11-27T08:00:32.728Z,508
2017-11-27T08:00:58.166Z,520
2017-11-27T08:01:23.615Z,472
2017-11-27T08:01:49.079Z,500
2017-11-27T08:02:14.551Z,544
2017-11-27T08:02:40.127Z,556
2017-11-27T08:03:05.555Z,576
2017-11-27T08:03:30.975Z,552
2017-11-27T08:03:56.464Z,504
2017-11-27T08:04:21.939Z,524
2017-11-27T08:04:47.489Z,524
2017-11-27T08:05:12.883Z,508
2017-11-27T08:05:38.400Z,504
2017-11-27T08:06:03.853Z,464
2017-11-27T08:06:29.290Z,516
2017-11-27T08:06:54.777Z,512
2017-11-27T08:07:20.236Z,516
2017-11-27T08:07:45.688Z,456
2017-11-27T08:08:11.178Z,444
2017-11-27T08:08:36.637Z,532
2017-11-27T08:09:02.081Z,548
2017-11-27T08:09:27.574Z,600
2017-11-27T08:09:53.071Z,608
2017-11-27T08:10:18.530Z,588
2017-11-27T08:10:44.022Z,564
2017-11-27T08:11:09.527Z,592
2017-11-27T08:11:35.043Z,612
2017-11-27T08:12:00.488Z,652
2017-11-27T08:12:25.990Z,680
2017-11-27T08:12:51.469Z,664
2017-11-27T08:13:16.914Z,684
2017-11-27T08:13:42.503Z,664
2017-11-27T08:14:08.181Z,664
2017-11-27T08:14:33.698Z,692
2017-11-27T08:14:59.287Z,696
2017-11-27T08:15:24.928Z,628
2017-11-27T08:15:50.483Z,588
2017-11-27T08:16:16.049Z,556
2017-11-27T08:16:41.665Z,580
2017-11-27T08:17:07.214Z,552
2017-11-27T08:17:32.765Z,572
2017-11-27T08:17:58.268Z,600
2017-11-27T08:18:23.845Z,604
2017-11-27T08:18:49.484Z,580
2017-11-27T08:19:15.065Z,620
2017-11-27T08:19:40.611Z,608
2017-11-27T08:20:06.173Z,580
2017-11-27T08:20:31.604Z,528
2017-11-27T08:20:57.118Z,504
2017-11-27T08:21:22.642Z,512
2017-11-27T08:21:48.190Z,488
2017-11-27T08:22:13.621Z,488
2017-11-27T08:22:39.120Z,500
2017-11-27T08:23:04.546Z,588
2017-11-27T08:23:30.037Z,592
2017-11-27T08:23:55.469Z,552
2017-11-27T08:24:21.000Z,496
2017-11-27T08:24:46.493Z,512
2017-11-27T08:25:12.034Z,480
2017-11-27T08:25:37.530Z,464
2017-11-27T08:26:03.038Z,496
2017-11-27T08:26:28.545Z,524
2017-11-27T08:26:54.039Z,544
2017-11-27T08:27:19.496Z,560
2017-11-27T08:27:44.989Z,508
2017-11-27T08:28:10.438Z,484
2017-11-27T08:28:35.914Z,492
2017-11-27T08:29:01.394Z,468
2017-11-27T08:29:26.913Z,492
2017-11-27T08:29:52.420Z,500
2017-11-27T08:30:17.906Z,548
2017-11-27T08:30:43.405Z,512
2017-11-27T08:31:08.877Z,508
2017-11-27T08:31:34.361Z,572
2017-11-27T08:31:59.849Z,500
2017-11-27T08:32:25.331Z,524
2017-11-27T08:32:50.847Z,500
2017-11-27T08:33:16.310Z,616
2017-11-27T08:33:41.806Z,548
2017-11-27T08:34:07.268Z,612
2017-11-27T08:34:32.794Z,616
2017-11-27T08:34:58.292Z,600
2017-11-27T08:35:23.793Z,580
2017-11-27T08:35:49.283Z,544
2017-11-27T08:36:14.774Z,540
2017-11-27T08:36:40.286Z,548
2017-11-27T08:37:05.800Z,532
2017-11-27T08:37:31.293Z,516
2017-11-27T08:37:56.757Z,556
2017-11-27T08:38:22.224Z,544
2017-11-27T08:38:47.703Z,592
2017-11-27T08:39:13.199Z,604
2017-11-27T08:39:38.646Z,584
2017-11-27T08:40:04.143Z,600
2017-11-27T08:40:29.646Z,616
2017-11-27T08:40:55.117Z,580
2017-11-27T08:41:20.588Z,620
2017-11-27T08:41:46.052Z,556
2017-11-27T08:42:11.528Z,636
2017-11-27T08:42:37.033Z,644
2017-11-27T08:43:02.521Z,620
2017-11-27T08:43:27.987Z,632
2017-11-27T08:43:53.492Z,724
2017-11-27T08:44:18.994Z,712
2017-11-27T08:44:44.494Z,712
2017-11-27T08:45:09.974Z,872
2017-11-27T08:45:35.488Z,884
2017-11-27T08:46:01.006Z,900
2017-11-27T08:46:26.466Z,940
2017-11-27T08:46:51.996Z,856
2017-11-27T08:47:17.460Z,804
2017-11-27T08:47:42.979Z,792
2017-11-27T08:48:08.466Z,864
2017-11-27T08:48:33.958Z,748
2017-11-27T08:48:59.414Z,684
2017-11-27T08:49:24.915Z,632
2017-11-27T08:49:50.422Z,676
2017-11-27T08:50:15.892Z,808
2017-11-27T08:50:41.436Z,688
2017-11-27T08:51:06.939Z,748
2017-11-27T08:51:32.449Z,840
2017-11-27T08:51:57.914Z,820
2017-11-27T08:52:23.422Z,732
2017-11-27T08:52:48.888Z,700
2017-11-27T08:53:14.377Z,796
2017-11-27T08:53:39.862Z,880
2017-11-27T08:54:05.326Z,760
2017-11-27T08:54:30.798Z,788
2017-11-27T08:54:56.346Z,848
2017-11-27T08:55:21.807Z,780
2017-11-27T08:55:47.292Z,780
2017-11-27T08:56:12.761Z,824
2017-11-27T08:56:38.286Z,932
2017-11-27T08:57:03.778Z,800
2017-11-27T08:57:29.273Z,764
2017-11-27T08:57:54.779Z,888
2017-11-27T08:58:20.276Z,880
2017-11-27T08:58:45.762Z,904
2017-11-27T08:59:11.251Z,1100
2017-11-27T08:59:36.751Z,1124
2017-11-27T09:00:02.239Z,1236
2017-11-27T09:00:27.735Z,1044
2017-11-27T09:00:53.261Z,856
2017-11-27T09:01:18.761Z,952
2017-11-27T09:01:44.303Z,988
2017-11-27T09:02:09.810Z,932
2017-11-27T09:02:35.316Z,1108
2017-11-27T09:03:00.799Z,1328
2017-11-27T09:03:26.328Z,1120
2017-11-27T09:03:51.802Z,1172
2017-11-27T09:04:17.299Z,1200
2017-11-27T09:04:42.772Z,1284
2017-11-27T09:05:08.297Z,1728
2017-11-27T09:05:33.738Z,1988
2017-11-27T09:05:59.227Z,1844
2017-11-27T09:06:24.708Z,1600
2017-11-27T09:06:50.211Z,1320
2017-11-27T09:07:15.734Z,1152
2017-11-27T09:07:41.205Z,940
2017-11-27T09:08:06.693Z,792
2017-11-27T09:08:32.177Z,840
2017-11-27T09:08:57.674Z,920
2017-11-27T09:09:23.207Z,1144
2017-11-27T09:09:48.724Z,844
2017-11-27T09:10:14.215Z,856
2017-11-27T09:10:39.691Z,1028
2017-11-27T09:11:05.172Z,1032
2017-11-27T09:11:30.666Z,852
2017-11-27T09:11:56.171Z,1020
2017-11-27T09:12:21.680Z,1196
2017-11-27T09:12:47.177Z,1192
2017-11-27T09:13:12.653Z,936
2017-11-27T09:13:38.201Z,988
2017-11-27T09:14:03.691Z,1104
2017-11-27T09:14:29.200Z,972
2017-11-27T09:14:54.672Z,996
2017-11-27T09:15:20.148Z,1200
2017-11-27T09:15:45.612Z,1528
2017-11-27T09:16:11.075Z,1128
2017-11-27T09:16:36.640Z,1464
2017-11-27T09:17:02.063Z,1332
2017-11-27T09:17:27.545Z,1328
2017-11-27T09:17:53.030Z,1292
2017-11-27T09:18:18.448Z,1252
2017-11-27T09:18:43.949Z,1264
2017-11-27T09:19:09.446Z,1648
2017-11-27T09:19:34.943Z,1476
2017-11-27T09:20:00.325Z,1580
2017-11-27T09:20:25.856Z,1220
2017-11-27T09:20:51.300Z,1088
2017-11-27T09:21:16.722Z,916
2017-11-27T09:21:42.213Z,880
2017-11-27T09:22:07.698Z,936
2017-11-27T09:22:33.156Z,828
2017-11-27T09:22:58.613Z,744
2017-11-27T09:23:24.068Z,712
2017-11-27T09:23:49.532Z,716
2017-11-27T09:24:14.988Z,784
2017-11-27T09:24:40.513Z,804
2017-11-27T09:25:06.001Z,848
2017-11-27T09:25:31.469Z,960
2017-11-27T09:25:56.892Z,816
2017-11-27T09:26:22.318Z,948
2017-11-27T09:26:47.806Z,1232
2017-11-27T09:27:13.289Z,1280
2017-11-27T09:27:38.720Z,1212
2017-11-27T09:28:04.260Z,1284
2017-11-27T09:28:29.699Z,1644
2017-11-27T09:28:55.162Z,1276
2017-11-27T09:29:20.645Z,1324
2017-11-27T09:29:46.106Z,988
2017-11-27T09:30:11.587Z,1072
2017-11-27T09:30:37.068Z,884
2017-11-27T09:31:02.495Z,868
2017-11-27T09:31:27.957Z,800
2017-11-27T09:31:53.428Z,724
2017-11-27T09:32:18.891Z,812
2017-11-27T09:32:44.339Z,900
2017-11-27T09:33:09.841Z,1044
2017-11-27T09:33:35.287Z,1208
2017-11-27T09:34:00.808Z,1308
2017-11-27T09:34:26.291Z,1212
2017-11-27T09:34:51.777Z,1320
2017-11-27T09:35:17.232Z,1388
2017-11-27T09:35:42.717Z,1356
2017-11-27T09:36:08.184Z,1104
2017-11-27T09:36:33.627Z,1156
2017-11-27T09:36:59.119Z,1504
2017-11-27T09:37:24.653Z,1416
2017-11-27T09:37:50.122Z,1284
2017-11-27T09:38:15.554Z,1240
2017-11-27T09:38:41.037Z,1064
2017-11-27T09:39:06.508Z,1092
2017-11-27T09:39:31.992Z,1204
2017-11-27T09:39:57.446Z,1228
2017-11-27T09:40:22.918Z,1196
2017-11-27T09:40:48.327Z,1236
2017-11-27T09:41:13.796Z,1100
2017-11-27T09:41:39.285Z,996
2017-11-27T09:42:04.780Z,1368
2017-11-27T09:42:30.198Z,1620
2017-11-27T09:42:55.781Z,1480
2017-11-27T09:43:21.230Z,1468
2017-11-27T09:43:46.645Z,1328
2017-11-27T09:44:12.146Z,1148
2017-11-27T09:44:37.560Z,1356
2017-11-27T09:45:03.001Z,1404
2017-11-27T09:45:28.476Z,1476
2017-11-27T09:45:54.015Z,1592
2017-11-27T09:46:19.456Z,1444
2017-11-27T09:46:44.884Z,1412
2017-11-27T09:47:10.401Z,1364
2017-11-27T09:47:35.831Z,1524
2017-11-27T09:48:01.328Z,1488
2017-11-27T09:48:26.753Z,1164
2017-11-27T09:48:52.266Z,1024
2017-11-27T09:49:17.716Z,1108
2017-11-27T09:49:43.155Z,1256
2017-11-27T09:50:08.630Z,1220
2017-11-27T09:50:34.100Z,1260
2017-11-27T09:50:59.695Z,1184
2017-11-27T09:51:25.117Z,992
2017-11-27T09:51:50.604Z,960
2017-11-27T09:52:16.025Z,1004
2017-11-27T09:52:41.575Z,996
2017-11-27T09:53:06.994Z,1016
2017-11-27T09:53:32.501Z,1108
2017-11-27T09:53:57.992Z,1340
2017-11-27T09:54:23.411Z,1368
2017-11-27T09:54:48.897Z,1200
2017-11-27T09:55:14.382Z,1400
2017-11-27T09:55:39.900Z,1288
2017-11-27T09:56:05.315Z,1144
2017-11-27T09:56:30.779Z,956
2017-11-27T09:56:56.265Z,1156
2017-11-27T09:57:21.764Z,1384
2017-11-27T09:57:47.217Z,1488
2017-11-27T09:58:12.695Z,1424
2017-11-27T09:58:38.197Z,1352
2017-11-27T09:59:03.676Z,1188
2017-11-27T09:59:29.175Z,1240
2017-11-27T09:59:54.651Z,1152
2017-11-27T10:00:20.150Z,1268
2017-11-27T10:00:45.650Z,1188
2017-11-27T10:01:11.061Z,1252
2017-11-27T10:01:36.549Z,1028
2017-11-27T10:02:02.021Z,1144
2017-11-27T10:02:27.483Z,1196
2017-11-27T10:02:53.035Z,1256
2017-11-27T10:03:18.503Z,1560
2017-11-27T10:03:43.984Z,1436
2017-11-27T10:04:09.448Z,1236
2017-11-27T10:04:34.863Z,1068
2017-11-27T10:05:00.302Z,1176
2017-11-27T10:05:25.780Z,980
2017-11-27T10:05:51.229Z,932
2017-11-27T10:06:16.704Z,1072
2017-11-27T10:06:42.135Z,1136
2017-11-27T10:07:07.610Z,1020
2017-11-27T10:07:33.089Z,1072
2017-11-27T10:07:58.532Z,1188
2017-11-27T10:08:24.000Z,1100
2017-11-27T10:08:49.473Z,1232
2017-11-27T10:09:14.962Z,1488
2017-11-27T10:09:40.479Z,1312
2017-11-27T10:10:05.945Z,1148
2017-11-27T10:10:31.416Z,1268
2017-11-27T10:10:56.870Z,1300
2017-11-27T10:11:22.300Z,1180
2017-11-27T10:11:47.828Z,1412
2017-11-27T10:12:13.291Z,1060
2017-11-27T10:12:38.799Z,1316
2017-11-27T10:13:04.220Z,1288
2017-11-27T10:13:29.663Z,1468
2017-11-27T10:13:55.126Z,1712
2017-11-27T10:14:20.564Z,1676
2017-11-27T10:14:46.035Z,1508
2017-11-27T10:15:11.508Z,1828
2017-11-27T10:15:36.988Z,1520
2017-11-27T10:16:02.431Z,1344
2017-11-27T10:16:27.913Z,1520
2017-11-27T10:16:53.440Z,1564
2017-11-27T10:17:18.925Z,1668
2017-11-27T10:17:44.396Z,1560
2017-11-27T10:18:09.859Z,1296
2017-11-27T10:18:35.363Z,1556
2017-11-27T10:19:00.833Z,1460
2017-11-27T10:19:26.318Z,1512
2017-11-27T10:19:51.805Z,1424
2017-11-27T10:20:17.292Z,1388
2017-11-27T10:20:42.789Z,1128
2017-11-27T10:21:08.287Z,1688
2017-11-27T10:21:33.780Z,1496
2017-11-27T10:21:59.269Z,1720
2017-11-27T10:22:24.769Z,1416
2017-11-27T10:22:50.238Z,1280
2017-11-27T10:23:15.699Z,1408
2017-11-27T10:23:41.179Z,1404
2017-11-27T10:24:06.692Z,1200
2017-11-27T10:24:32.214Z,1212
2017-11-27T10:24:57.623Z,1364
2017-11-27T10:25:23.087Z,1148
2017-11-27T10:25:48.569Z,1296
2017-11-27T10:26:14.093Z,1484
2017-11-27T10:26:39.608Z,1200
2017-11-27T10:27:05.094Z,1208
2017-11-27T10:27:30.572Z,1268
2017-11-27T10:27:56.032Z,1324
2017-11-27T10:28:21.559Z,1472
2017-11-27T10:28:47.039Z,1452
2017-11-27T10:29:12.504Z,1288
2017-11-27T10:29:37.989Z,1404
2017-11-27T10:30:03.507Z,1692
2017-11-27T10:30:28.985Z,1716
2017-11-27T10:30:54.452Z,1552
2017-11-27T10:31:19.954Z,1532
2017-11-27T10:31:45.462Z,1416
2017-11-27T10:32:10.993Z,1412
2017-11-27T10:32:36.522Z,1200
2017-11-27T10:33:02.021Z,1628
2017-11-27T10:33:27.532Z,1772
2017-11-27T10:33:53.014Z,1460
2017-11-27T10:34:18.517Z,1436
2017-11-27T10:34:44.016Z,1732
2017-11-27T10:35:09.439Z,1320
2017-11-27T10:35:34.926Z,1348
2017-11-27T10:36:00.421Z,1564
2017-11-27T10:36:25.902Z,1464
2017-11-27T10:36:51.382Z,1280
2017-11-27T10:37:16.889Z,1512
2017-11-27T10:37:42.354Z,1552
2017-11-27T10:38:07.853Z,1524
2017-11-27T10:38:33.378Z,1768
2017-11-27T10:38:58.921Z,1916
2017-11-27T10:39:24.421Z,1844
2017-11-27T10:39:49.903Z,1792
2017-11-27T10:40:15.426Z,1664
2017-11-27T10:40:40.970Z,1916
2017-11-27T10:41:06.458Z,1828
2017-11-27T10:41:31.942Z,1780
2017-11-27T10:41:57.469Z,1908
2017-11-27T10:42:22.944Z,1840
2017-11-27T10:42:48.443Z,1652
2017-11-27T10:43:14.004Z,1748
2017-11-27T10:43:39.489Z,1508
2017-11-27T10:44:04.967Z,1492
2017-11-27T10:44:30.488Z,1360
2017-11-27T10:44:55.969Z,1568
2017-11-27T10:45:21.478Z,1428
2017-11-27T10:45:46.957Z,1344
2017-11-27T10:46:12.459Z,1228
2017-11-27T10:46:37.961Z,1368
2017-11-27T10:47:46.685Z,1304
2017-11-27T10:48:12.187Z,1400
2017-11-27T10:48:37.681Z,1388
2017-11-27T10:49:03.174Z,1460
2017-11-27T10:49:28.675Z,1492
2017-11-27T10:49:54.145Z,1480
2017-11-27T10:50:19.610Z,1464
2017-11-27T10:50:45.106Z,1632
2017-11-27T10:51:10.572Z,1576
2017-11-27T10:51:36.052Z,1640
2017-11-27T10:53:00.091Z,1788
2017-11-27T10:53:25.600Z,1672
2017-11-27T10:53:51.109Z,1892
2017-11-27T10:54:16.653Z,1772
2017-11-27T10:54:42.146Z,1700
2017-11-27T10:55:07.628Z,1888
2017-11-27T10:55:33.091Z,1836
2017-11-27T10:55:58.581Z,1592
2017-11-27T10:56:24.086Z,1696
2017-11-27T10:56:49.576Z,1776
2017-11-27T10:57:15.097Z,2016
2017-11-27T10:57:40.547Z,1804
2017-11-27T10:58:06.048Z,1544
2017-11-27T10:58:31.562Z,1812
2017-11-27T10:58:57.031Z,1736
2017-11-27T10:59:22.567Z,1676
2017-11-27T10:59:48.039Z,1792
2017-11-27T11:00:13.521Z,2100
2017-11-27T11:00:39.012Z,2004